sensor_id;sensor_type;location;lat;lon;timestamp;temperature;humidity
15231;DHT22;32569;51.762;8.564;2022-09-17T00:01:14;10.80;99.90
15231;DHT22;32569;51.762;8.564;2022-09-17T00:03:42;10.80;99.90
15231;DHT22;32569;51.762;8.564;2022-09-17T00:06:10;10.80;99.90
15231;DHT22;32569;51.762;8.564;2022-09-17T00:08:39;10.80;99.90
15231;DHT22;32569;51.762;8.564;2022-09-17T00:11:07;10.80;99.90
15231;DHT22;32569;51.762;8.564;2022-09-17T00:13:34;10.80;99.90
15231;DHT22;32569;51.762;8.564;2022-09-17T00:16:03;10.80;99.90
15231;DHT22;32569;51.762;8.564;2022-09-17T00:18:29;10.80;99.90
15231;DHT22;32569;51.762;8.564;2022-09-17T00:20:56;10.80;99.90
15231;DHT22;32569;51.762;8.564;2022-09-17T00:23:23;10.80;99.90
15231;DHT22;32569;51.762;8.564;2022-09-17T00:25:49;10.80;99.90
15231;DHT22;32569;51.762;8.564;2022-09-17T00:28:16;10.80;99.90
15231;DHT22;32569;51.762;8.564;2022-09-17T00:30:44;10.80;99.90
15231;DHT22;32569;51.762;8.564;2022-09-17T00:33:14;10.80;99.90
15231;DHT22;32569;51.762;8.564;2022-09-17T00:35:41;10.80;99.90
15231;DHT22;32569;51.762;8.564;2022-09-17T00:38:08;10.90;99.90
15231;DHT22;32569;51.762;8.564;2022-09-17T00:40:35;10.80;99.90
15231;DHT22;32569;51.762;8.564;2022-09-17T00:43:02;10.90;99.90
15231;DHT22;32569;51.762;8.564;2022-09-17T00:45:29;10.80;99.90
15231;DHT22;32569;51.762;8.564;2022-09-17T00:47:58;10.80;99.90
15231;DHT22;32569;51.762;8.564;2022-09-17T00:50:29;10.90;99.90
15231;DHT22;32569;51.762;8.564;2022-09-17T00:53:00;10.90;99.90
15231;DHT22;32569;51.762;8.564;2022-09-17T00:55:30;10.90;99.90
15231;DHT22;32569;51.762;8.564;2022-09-17T00:57:58;10.90;99.90
15231;DHT22;32569;51.762;8.564;2022-09-17T01:00:28;10.90;99.90
15231;DHT22;32569;51.762;8.564;2022-09-17T01:02:56;10.80;99.90
15231;DHT22;32569;51.762;8.564;2022-09-17T01:05:32;10.80;99.90
15231;DHT22;32569;51.762;8.564;2022-09-17T01:08:06;10.90;99.90
15231;DHT22;32569;51.762;8.564;2022-09-17T01:13:39;10.90;99.90
15231;DHT22;32569;51.762;8.564;2022-09-17T01:16:15;10.90;99.90
15231;DHT22;32569;51.762;8.564;2022-09-17T01:18:53;10.90;99.90
15231;DHT22;32569;51.762;8.564;2022-09-17T01:21:45;10.90;99.90
15231;DHT22;32569;51.762;8.564;2022-09-17T01:30:55;10.90;99.90
15231;DHT22;32569;51.762;8.564;2022-09-17T01:33:28;10.90;99.90
15231;DHT22;32569;51.762;8.564;2022-09-17T01:36:05;10.90;99.90
15231;DHT22;32569;51.762;8.564;2022-09-17T01:38:42;10.90;99.90
15231;DHT22;32569;51.762;8.564;2022-09-17T01:41:17;11.00;99.90
15231;DHT22;32569;51.762;8.564;2022-09-17T01:43:51;10.90;99.90
15231;DHT22;32569;51.762;8.564;2022-09-17T01:46:26;10.90;99.90
15231;DHT22;32569;51.762;8.564;2022-09-17T01:48:58;10.90;99.90
15231;DHT22;32569;51.762;8.564;2022-09-17T01:51:29;10.90;99.90
15231;DHT22;32569;51.762;8.564;2022-09-17T01:53:59;10.80;99.90
15231;DHT22;32569;51.762;8.564;2022-09-17T01:56:30;10.90;99.90
15231;DHT22;32569;51.762;8.564;2022-09-17T01:59:03;11.00;99.90
15231;DHT22;32569;51.762;8.564;2022-09-17T02:01:34;10.90;99.90
15231;DHT22;32569;51.762;8.564;2022-09-17T02:04:06;10.90;99.90
15231;DHT22;32569;51.762;8.564;2022-09-17T02:06:37;10.90;99.90
15231;DHT22;32569;51.762;8.564;2022-09-17T02:09:10;10.80;99.90
15231;DHT22;32569;51.762;8.564;2022-09-17T02:11:39;10.90;99.90
15231;DHT22;32569;51.762;8.564;2022-09-17T02:14:11;10.80;99.90
15231;DHT22;32569;51.762;8.564;2022-09-17T02:16:44;10.80;99.90
15231;DHT22;32569;51.762;8.564;2022-09-17T02:19:16;10.70;99.90
15231;DHT22;32569;51.762;8.564;2022-09-17T02:21:47;10.70;99.90
15231;DHT22;32569;51.762;8.564;2022-09-17T02:24:20;10.70;99.90
15231;DHT22;32569;51.762;8.564;2022-09-17T02:26:52;10.70;99.90
15231;DHT22;32569;51.762;8.564;2022-09-17T02:29:25;10.70;99.90
15231;DHT22;32569;51.762;8.564;2022-09-17T02:31:56;10.60;99.90
15231;DHT22;32569;51.762;8.564;2022-09-17T02:34:23;10.70;99.90
15231;DHT22;32569;51.762;8.564;2022-09-17T02:36:51;10.60;99.90
15231;DHT22;32569;51.762;8.564;2022-09-17T02:39:17;10.60;99.90
15231;DHT22;32569;51.762;8.564;2022-09-17T02:41:50;10.60;99.90
15231;DHT22;32569;51.762;8.564;2022-09-17T02:44:23;10.60;99.90
15231;DHT22;32569;51.762;8.564;2022-09-17T02:47:08;10.60;99.90
15231;DHT22;32569;51.762;8.564;2022-09-17T02:49:52;10.60;99.90
15231;DHT22;32569;51.762;8.564;2022-09-17T02:52:31;10.60;99.90
15231;DHT22;32569;51.762;8.564;2022-09-17T02:55:06;10.50;99.90
15231;DHT22;32569;51.762;8.564;2022-09-17T02:57:40;10.50;99.90
15231;DHT22;32569;51.762;8.564;2022-09-17T03:00:13;10.50;99.90
15231;DHT22;32569;51.762;8.564;2022-09-17T03:02:44;10.40;99.90
15231;DHT22;32569;51.762;8.564;2022-09-17T03:05:17;10.40;99.90
15231;DHT22;32569;51.762;8.564;2022-09-17T03:07:44;10.30;99.90
15231;DHT22;32569;51.762;8.564;2022-09-17T03:10:11;10.30;99.90
15231;DHT22;32569;51.762;8.564;2022-09-17T03:12:38;10.30;99.90
15231;DHT22;32569;51.762;8.564;2022-09-17T03:15:05;10.20;99.90
15231;DHT22;32569;51.762;8.564;2022-09-17T03:17:33;10.20;99.90
15231;DHT22;32569;51.762;8.564;2022-09-17T03:20:02;10.10;99.90
15231;DHT22;32569;51.762;8.564;2022-09-17T03:22:28;10.20;99.90
15231;DHT22;32569;51.762;8.564;2022-09-17T03:24:55;10.20;99.90
15231;DHT22;32569;51.762;8.564;2022-09-17T03:27:22;10.20;99.90
15231;DHT22;32569;51.762;8.564;2022-09-17T03:29:48;10.10;99.90
15231;DHT22;32569;51.762;8.564;2022-09-17T03:32:15;10.10;99.90
15231;DHT22;32569;51.762;8.564;2022-09-17T03:34:42;10.00;99.90
15231;DHT22;32569;51.762;8.564;2022-09-17T03:37:09;10.10;99.90
15231;DHT22;32569;51.762;8.564;2022-09-17T03:39:36;10.10;99.90
15231;DHT22;32569;51.762;8.564;2022-09-17T03:42:04;10.00;99.90
15231;DHT22;32569;51.762;8.564;2022-09-17T03:44:31;10.00;99.90
15231;DHT22;32569;51.762;8.564;2022-09-17T03:46:57;10.00;99.90
15231;DHT22;32569;51.762;8.564;2022-09-17T03:49:24;9.90;99.90
15231;DHT22;32569;51.762;8.564;2022-09-17T03:51:51;10.00;99.90
15231;DHT22;32569;51.762;8.564;2022-09-17T03:54:19;9.90;99.90
15231;DHT22;32569;51.762;8.564;2022-09-17T03:56:45;9.90;99.90
15231;DHT22;32569;51.762;8.564;2022-09-17T03:59:12;9.90;99.90
15231;DHT22;32569;51.762;8.564;2022-09-17T04:01:39;9.80;99.90
15231;DHT22;32569;51.762;8.564;2022-09-17T04:04:06;9.80;99.90
15231;DHT22;32569;51.762;8.564;2022-09-17T04:06:33;9.90;99.90
15231;DHT22;32569;51.762;8.564;2022-09-17T04:09:00;9.80;99.90
15231;DHT22;32569;51.762;8.564;2022-09-17T04:11:30;9.90;99.90
15231;DHT22;32569;51.762;8.564;2022-09-17T04:13:57;9.90;99.90
15231;DHT22;32569;51.762;8.564;2022-09-17T04:16:23;9.80;99.90
15231;DHT22;32569;51.762;8.564;2022-09-17T04:18:50;9.90;99.90
15231;DHT22;32569;51.762;8.564;2022-09-17T04:21:17;9.90;99.90
15231;DHT22;32569;51.762;8.564;2022-09-17T04:23:44;9.80;99.90
15231;DHT22;32569;51.762;8.564;2022-09-17T04:26:10;9.80;99.90
15231;DHT22;32569;51.762;8.564;2022-09-17T04:28:38;9.80;99.90
15231;DHT22;32569;51.762;8.564;2022-09-17T04:31:05;9.80;99.90
15231;DHT22;32569;51.762;8.564;2022-09-17T04:33:32;9.70;99.90
15231;DHT22;32569;51.762;8.564;2022-09-17T04:35:59;9.80;99.90
15231;DHT22;32569;51.762;8.564;2022-09-17T04:38:25;9.80;99.90
15231;DHT22;32569;51.762;8.564;2022-09-17T04:40:52;9.80;99.90
15231;DHT22;32569;51.762;8.564;2022-09-17T04:43:21;9.80;99.90
15231;DHT22;32569;51.762;8.564;2022-09-17T04:45:50;9.80;99.90
15231;DHT22;32569;51.762;8.564;2022-09-17T04:48:17;9.80;99.90
15231;DHT22;32569;51.762;8.564;2022-09-17T04:50:44;9.80;99.90
15231;DHT22;32569;51.762;8.564;2022-09-17T04:53:10;9.80;99.90
15231;DHT22;32569;51.762;8.564;2022-09-17T04:55:37;9.80;99.90
15231;DHT22;32569;51.762;8.564;2022-09-17T04:58:04;9.70;99.90
15231;DHT22;32569;51.762;8.564;2022-09-17T05:00:30;9.70;99.90
15231;DHT22;32569;51.762;8.564;2022-09-17T05:02:58;9.60;99.90
15231;DHT22;32569;51.762;8.564;2022-09-17T05:05:25;9.60;99.90
15231;DHT22;32569;51.762;8.564;2022-09-17T05:07:52;9.60;99.90
15231;DHT22;32569;51.762;8.564;2022-09-17T05:10:20;9.60;99.90
15231;DHT22;32569;51.762;8.564;2022-09-17T05:12:48;9.60;99.90
15231;DHT22;32569;51.762;8.564;2022-09-17T05:15:15;9.50;99.90
15231;DHT22;32569;51.762;8.564;2022-09-17T05:17:42;9.50;99.90
15231;DHT22;32569;51.762;8.564;2022-09-17T05:20:11;9.50;99.90
15231;DHT22;32569;51.762;8.564;2022-09-17T05:22:42;9.50;99.90
15231;DHT22;32569;51.762;8.564;2022-09-17T05:25:09;9.50;99.90
15231;DHT22;32569;51.762;8.564;2022-09-17T05:27:35;9.40;99.90
15231;DHT22;32569;51.762;8.564;2022-09-17T05:30:03;9.50;99.90
15231;DHT22;32569;51.762;8.564;2022-09-17T05:32:30;9.60;99.90
15231;DHT22;32569;51.762;8.564;2022-09-17T05:34:56;9.60;99.90
15231;DHT22;32569;51.762;8.564;2022-09-17T05:37:24;9.60;99.90
15231;DHT22;32569;51.762;8.564;2022-09-17T05:39:51;9.70;99.90
15231;DHT22;32569;51.762;8.564;2022-09-17T05:42:18;9.70;99.90
15231;DHT22;32569;51.762;8.564;2022-09-17T05:44:44;9.70;99.90
15231;DHT22;32569;51.762;8.564;2022-09-17T05:47:11;9.70;99.90
15231;DHT22;32569;51.762;8.564;2022-09-17T05:49:38;9.70;99.90
15231;DHT22;32569;51.762;8.564;2022-09-17T05:52:04;9.70;99.90
15231;DHT22;32569;51.762;8.564;2022-09-17T05:54:32;9.80;99.90
15231;DHT22;32569;51.762;8.564;2022-09-17T05:56:59;9.80;99.90
15231;DHT22;32569;51.762;8.564;2022-09-17T05:59:26;9.70;99.90
15231;DHT22;32569;51.762;8.564;2022-09-17T06:01:53;9.80;99.90
15231;DHT22;32569;51.762;8.564;2022-09-17T06:04:20;9.80;99.90
15231;DHT22;32569;51.762;8.564;2022-09-17T06:06:46;9.70;99.90
15231;DHT22;32569;51.762;8.564;2022-09-17T06:09:13;9.80;99.90
15231;DHT22;32569;51.762;8.564;2022-09-17T06:11:41;9.90;99.90
15231;DHT22;32569;51.762;8.564;2022-09-17T06:14:08;9.90;99.90
15231;DHT22;32569;51.762;8.564;2022-09-17T06:16:35;10.00;99.90
15231;DHT22;32569;51.762;8.564;2022-09-17T06:19:02;10.00;99.90
15231;DHT22;32569;51.762;8.564;2022-09-17T06:24:57;9.90;99.90
15231;DHT22;32569;51.762;8.564;2022-09-17T06:27:35;9.90;99.90
15231;DHT22;32569;51.762;8.564;2022-09-17T06:30:15;9.90;99.90
15231;DHT22;32569;51.762;8.564;2022-09-17T06:32:45;9.90;99.90
15231;DHT22;32569;51.762;8.564;2022-09-17T06:35:42;10.00;99.90
15231;DHT22;32569;51.762;8.564;2022-09-17T06:38:41;10.10;99.90
15231;DHT22;32569;51.762;8.564;2022-09-17T06:44:44;10.30;99.90
15231;DHT22;32569;51.762;8.564;2022-09-17T06:47:11;10.40;99.90
15231;DHT22;32569;51.762;8.564;2022-09-17T06:56:35;10.80;99.90
15231;DHT22;32569;51.762;8.564;2022-09-17T06:59:04;10.90;99.90
15231;DHT22;32569;51.762;8.564;2022-09-17T07:01:32;10.90;99.90
15231;DHT22;32569;51.762;8.564;2022-09-17T07:03:58;11.00;99.90
15231;DHT22;32569;51.762;8.564;2022-09-17T07:06:25;11.10;99.90
15231;DHT22;32569;51.762;8.564;2022-09-17T07:08:51;11.30;99.90
15231;DHT22;32569;51.762;8.564;2022-09-17T07:11:18;11.30;99.90
15231;DHT22;32569;51.762;8.564;2022-09-17T07:13:45;11.30;99.90
15231;DHT22;32569;51.762;8.564;2022-09-17T07:16:11;11.30;99.90
15231;DHT22;32569;51.762;8.564;2022-09-17T07:18:40;11.40;99.90
15231;DHT22;32569;51.762;8.564;2022-09-17T07:21:08;11.30;99.90
15231;DHT22;32569;51.762;8.564;2022-09-17T07:23:36;11.30;99.90
15231;DHT22;32569;51.762;8.564;2022-09-17T07:26:04;11.30;99.90
15231;DHT22;32569;51.762;8.564;2022-09-17T07:28:31;11.30;99.90
15231;DHT22;32569;51.762;8.564;2022-09-17T07:31:01;11.30;99.90
15231;DHT22;32569;51.762;8.564;2022-09-17T07:33:28;11.30;99.90
15231;DHT22;32569;51.762;8.564;2022-09-17T07:35:58;11.30;99.90
15231;DHT22;32569;51.762;8.564;2022-09-17T07:38:26;11.30;99.90
15231;DHT22;32569;51.762;8.564;2022-09-17T07:40:57;11.20;99.90
15231;DHT22;32569;51.762;8.564;2022-09-17T07:43:24;11.20;99.90
15231;DHT22;32569;51.762;8.564;2022-09-17T07:45:52;11.10;99.90
15231;DHT22;32569;51.762;8.564;2022-09-17T07:48:19;11.10;99.90
15231;DHT22;32569;51.762;8.564;2022-09-17T07:50:46;11.00;99.90
15231;DHT22;32569;51.762;8.564;2022-09-17T07:53:14;11.00;99.90
15231;DHT22;32569;51.762;8.564;2022-09-17T07:55:41;11.10;99.90
15231;DHT22;32569;51.762;8.564;2022-09-17T07:58:08;11.20;99.90
15231;DHT22;32569;51.762;8.564;2022-09-17T08:00:35;11.20;99.90
15231;DHT22;32569;51.762;8.564;2022-09-17T08:03:02;11.30;99.90
15231;DHT22;32569;51.762;8.564;2022-09-17T08:05:31;11.40;99.90
15231;DHT22;32569;51.762;8.564;2022-09-17T08:07:57;11.50;99.90
15231;DHT22;32569;51.762;8.564;2022-09-17T08:10:25;11.60;99.90
15231;DHT22;32569;51.762;8.564;2022-09-17T08:12:54;11.60;99.90
15231;DHT22;32569;51.762;8.564;2022-09-17T08:15:22;11.70;99.90
15231;DHT22;32569;51.762;8.564;2022-09-17T08:17:50;11.80;99.90
15231;DHT22;32569;51.762;8.564;2022-09-17T08:20:17;11.80;99.90
15231;DHT22;32569;51.762;8.564;2022-09-17T08:22:44;11.80;99.90
15231;DHT22;32569;51.762;8.564;2022-09-17T08:25:11;11.90;99.90
15231;DHT22;32569;51.762;8.564;2022-09-17T08:27:39;11.90;99.90
15231;DHT22;32569;51.762;8.564;2022-09-17T08:30:07;12.00;99.90
15231;DHT22;32569;51.762;8.564;2022-09-17T08:32:34;12.10;99.90
15231;DHT22;32569;51.762;8.564;2022-09-17T08:35:01;12.10;99.90
15231;DHT22;32569;51.762;8.564;2022-09-17T08:37:28;12.10;99.90
15231;DHT22;32569;51.762;8.564;2022-09-17T08:39:55;12.30;99.90
15231;DHT22;32569;51.762;8.564;2022-09-17T08:42:28;12.30;99.90
15231;DHT22;32569;51.762;8.564;2022-09-17T08:44:58;12.20;99.90
15231;DHT22;32569;51.762;8.564;2022-09-17T08:47:29;12.20;99.90
15231;DHT22;32569;51.762;8.564;2022-09-17T08:50:02;12.30;99.90
15231;DHT22;32569;51.762;8.564;2022-09-17T08:52:56;12.40;99.90
15231;DHT22;32569;51.762;8.564;2022-09-17T08:55:35;12.40;99.90
15231;DHT22;32569;51.762;8.564;2022-09-17T08:58:28;12.40;99.90
15231;DHT22;32569;51.762;8.564;2022-09-17T09:01:06;12.50;99.90
15231;DHT22;32569;51.762;8.564;2022-09-17T09:03:44;12.60;99.90
15231;DHT22;32569;51.762;8.564;2022-09-17T09:06:13;12.60;99.90
15231;DHT22;32569;51.762;8.564;2022-09-17T09:08:42;12.70;99.90
15231;DHT22;32569;51.762;8.564;2022-09-17T09:11:12;12.90;99.90
15231;DHT22;32569;51.762;8.564;2022-09-17T09:13:43;12.80;99.90
15231;DHT22;32569;51.762;8.564;2022-09-17T09:16:14;12.90;99.90
15231;DHT22;32569;51.762;8.564;2022-09-17T09:18:42;12.90;99.90
15231;DHT22;32569;51.762;8.564;2022-09-17T09:21:20;13.00;99.90
15231;DHT22;32569;51.762;8.564;2022-09-17T09:23:53;13.00;99.90
15231;DHT22;32569;51.762;8.564;2022-09-17T09:26:22;13.00;99.90
15231;DHT22;32569;51.762;8.564;2022-09-17T09:29:04;13.00;99.90
15231;DHT22;32569;51.762;8.564;2022-09-17T09:31:45;13.00;99.90
15231;DHT22;32569;51.762;8.564;2022-09-17T09:34:13;13.00;99.90
15231;DHT22;32569;51.762;8.564;2022-09-17T09:36:40;13.10;99.20
15231;DHT22;32569;51.762;8.564;2022-09-17T09:39:13;13.20;99.00
15231;DHT22;32569;51.762;8.564;2022-09-17T09:41:43;13.40;99.00
15231;DHT22;32569;51.762;8.564;2022-09-17T09:44:12;13.60;98.60
15231;DHT22;32569;51.762;8.564;2022-09-17T09:46:53;13.50;98.60
15231;DHT22;32569;51.762;8.564;2022-09-17T09:49:33;13.40;99.10
15231;DHT22;32569;51.762;8.564;2022-09-17T09:52:12;13.40;99.60
15231;DHT22;32569;51.762;8.564;2022-09-17T09:54:57;13.50;99.50
15231;DHT22;32569;51.762;8.564;2022-09-17T09:57:34;13.50;98.40
15231;DHT22;32569;51.762;8.564;2022-09-17T10:00:25;13.50;98.20
15231;DHT22;32569;51.762;8.564;2022-09-17T10:02:58;13.70;99.00
15231;DHT22;32569;51.762;8.564;2022-09-17T10:05:26;13.80;98.30
15231;DHT22;32569;51.762;8.564;2022-09-17T10:07:53;13.90;98.00
15231;DHT22;32569;51.762;8.564;2022-09-17T10:10:20;13.70;97.70
15231;DHT22;32569;51.762;8.564;2022-09-17T10:12:46;13.60;98.10
15231;DHT22;32569;51.762;8.564;2022-09-17T10:15:24;13.60;98.90
15231;DHT22;32569;51.762;8.564;2022-09-17T10:18:10;13.70;98.00
15231;DHT22;32569;51.762;8.564;2022-09-17T10:20:48;13.70;97.30
15231;DHT22;32569;51.762;8.564;2022-09-17T10:23:15;13.90;97.10
15231;DHT22;32569;51.762;8.564;2022-09-17T10:25:42;14.00;97.10
15231;DHT22;32569;51.762;8.564;2022-09-17T10:28:29;14.00;96.80
15231;DHT22;32569;51.762;8.564;2022-09-17T10:30:58;14.10;97.50
15231;DHT22;32569;51.762;8.564;2022-09-17T10:33:28;14.10;96.50
15231;DHT22;32569;51.762;8.564;2022-09-17T10:35:58;14.10;96.00
15231;DHT22;32569;51.762;8.564;2022-09-17T10:38:28;14.20;96.40
15231;DHT22;32569;51.762;8.564;2022-09-17T10:41:08;14.30;95.70
15231;DHT22;32569;51.762;8.564;2022-09-17T10:43:35;14.20;95.70
15231;DHT22;32569;51.762;8.564;2022-09-17T10:46:03;14.30;96.00
15231;DHT22;32569;51.762;8.564;2022-09-17T10:48:36;14.40;95.90
15231;DHT22;32569;51.762;8.564;2022-09-17T10:51:04;14.30;95.20
15231;DHT22;32569;51.762;8.564;2022-09-17T10:54:05;14.10;96.00
15231;DHT22;32569;51.762;8.564;2022-09-17T10:56:34;14.00;96.30
15231;DHT22;32569;51.762;8.564;2022-09-17T10:59:26;13.90;96.20
15231;DHT22;32569;51.762;8.564;2022-09-17T11:02:02;13.90;96.40
15231;DHT22;32569;51.762;8.564;2022-09-17T11:04:44;14.00;96.90
15231;DHT22;32569;51.762;8.564;2022-09-17T11:07:32;14.10;96.90
15231;DHT22;32569;51.762;8.564;2022-09-17T11:10:11;14.30;96.60
15231;DHT22;32569;51.762;8.564;2022-09-17T11:12:56;14.50;95.90
15231;DHT22;32569;51.762;8.564;2022-09-17T11:15:46;14.50;95.40
15231;DHT22;32569;51.762;8.564;2022-09-17T11:18:35;14.70;95.30
15231;DHT22;32569;51.762;8.564;2022-09-17T11:24:21;14.50;94.60
15231;DHT22;32569;51.762;8.564;2022-09-17T11:26:55;14.50;94.80
15231;DHT22;32569;51.762;8.564;2022-09-17T11:29:42;14.30;95.00
15231;DHT22;32569;51.762;8.564;2022-09-17T11:32:21;14.20;95.40
15231;DHT22;32569;51.762;8.564;2022-09-17T11:34:57;14.10;96.30
15231;DHT22;32569;51.762;8.564;2022-09-17T11:37:31;13.90;96.50
15231;DHT22;32569;51.762;8.564;2022-09-17T11:40:05;13.90;97.20
15231;DHT22;32569;51.762;8.564;2022-09-17T11:42:41;14.10;96.90
15231;DHT22;32569;51.762;8.564;2022-09-17T11:45:14;14.20;96.50
15231;DHT22;32569;51.762;8.564;2022-09-17T11:47:46;14.50;96.30
15231;DHT22;32569;51.762;8.564;2022-09-17T11:50:19;14.60;95.10
15231;DHT22;32569;51.762;8.564;2022-09-17T11:52:59;14.80;96.00
15231;DHT22;32569;51.762;8.564;2022-09-17T11:55:38;14.70;95.90
15231;DHT22;32569;51.762;8.564;2022-09-17T11:58:12;14.70;96.00
15231;DHT22;32569;51.762;8.564;2022-09-17T12:00:45;14.80;95.50
15231;DHT22;32569;51.762;8.564;2022-09-17T12:03:20;14.90;95.40
15231;DHT22;32569;51.762;8.564;2022-09-17T12:05:52;15.10;95.60
15231;DHT22;32569;51.762;8.564;2022-09-17T12:08:23;15.20;95.90
15231;DHT22;32569;51.762;8.564;2022-09-17T12:10:59;15.40;95.00
15231;DHT22;32569;51.762;8.564;2022-09-17T12:13:33;15.40;93.50
15231;DHT22;32569;51.762;8.564;2022-09-17T12:16:10;15.10;93.60
15231;DHT22;32569;51.762;8.564;2022-09-17T12:18:47;14.80;94.00
15231;DHT22;32569;51.762;8.564;2022-09-17T12:21:18;14.60;95.10
15231;DHT22;32569;51.762;8.564;2022-09-17T12:23:50;14.20;98.00
15231;DHT22;32569;51.762;8.564;2022-09-17T12:26:56;14.00;99.00
15231;DHT22;32569;51.762;8.564;2022-09-17T12:29:45;14.00;98.00
15231;DHT22;32569;51.762;8.564;2022-09-17T12:32:28;14.00;98.00
15231;DHT22;32569;51.762;8.564;2022-09-17T12:35:01;14.10;96.50
15231;DHT22;32569;51.762;8.564;2022-09-17T12:37:36;14.20;96.60
15231;DHT22;32569;51.762;8.564;2022-09-17T12:40:18;14.40;96.10
15231;DHT22;32569;51.762;8.564;2022-09-17T12:42:56;14.50;95.30
15231;DHT22;32569;51.762;8.564;2022-09-17T12:45:42;14.60;95.00
15231;DHT22;32569;51.762;8.564;2022-09-17T12:48:25;14.80;94.40
15231;DHT22;32569;51.762;8.564;2022-09-17T12:51:01;15.00;94.20
15231;DHT22;32569;51.762;8.564;2022-09-17T12:53:35;15.20;93.70
15231;DHT22;32569;51.762;8.564;2022-09-17T12:56:15;15.20;93.90
15231;DHT22;32569;51.762;8.564;2022-09-17T13:01:37;14.90;94.50
15231;DHT22;32569;51.762;8.564;2022-09-17T13:04:15;15.00;94.90
15231;DHT22;32569;51.762;8.564;2022-09-17T13:07:10;15.00;94.70
15231;DHT22;32569;51.762;8.564;2022-09-17T13:10:02;14.90;94.90
15231;DHT22;32569;51.762;8.564;2022-09-17T13:12:39;14.80;94.90
15231;DHT22;32569;51.762;8.564;2022-09-17T13:15:35;14.60;95.40
15231;DHT22;32569;51.762;8.564;2022-09-17T13:18:11;14.50;95.80
15231;DHT22;32569;51.762;8.564;2022-09-17T13:20:47;14.30;96.10
15231;DHT22;32569;51.762;8.564;2022-09-17T13:23:29;14.30;96.30
15231;DHT22;32569;51.762;8.564;2022-09-17T13:25:56;14.30;97.40
15231;DHT22;32569;51.762;8.564;2022-09-17T13:28:38;14.40;96.90
15231;DHT22;32569;51.762;8.564;2022-09-17T13:31:06;14.50;97.00
15231;DHT22;32569;51.762;8.564;2022-09-17T13:33:51;14.60;97.00
15231;DHT22;32569;51.762;8.564;2022-09-17T13:36:39;14.60;96.50
15231;DHT22;32569;51.762;8.564;2022-09-17T13:39:08;14.50;95.70
15231;DHT22;32569;51.762;8.564;2022-09-17T13:41:38;14.50;95.80
15231;DHT22;32569;51.762;8.564;2022-09-17T13:44:08;14.40;96.30
15231;DHT22;32569;51.762;8.564;2022-09-17T13:46:38;14.30;96.10
15231;DHT22;32569;51.762;8.564;2022-09-17T13:49:12;14.50;96.30
15231;DHT22;32569;51.762;8.564;2022-09-17T13:51:48;14.80;95.60
15231;DHT22;32569;51.762;8.564;2022-09-17T13:54:18;14.90;96.00
15231;DHT22;32569;51.762;8.564;2022-09-17T13:56:48;14.80;96.00
15231;DHT22;32569;51.762;8.564;2022-09-17T13:59:18;14.80;96.60
15231;DHT22;32569;51.762;8.564;2022-09-17T14:01:58;14.90;96.60
15231;DHT22;32569;51.762;8.564;2022-09-17T14:04:46;14.90;95.10
15231;DHT22;32569;51.762;8.564;2022-09-17T14:07:33;14.80;95.00
15231;DHT22;32569;51.762;8.564;2022-09-17T14:12:54;14.20;96.40
15231;DHT22;32569;51.762;8.564;2022-09-17T14:15:35;13.30;97.80
15231;DHT22;32569;51.762;8.564;2022-09-17T14:18:43;12.90;99.70
15231;DHT22;32569;51.762;8.564;2022-09-17T14:21:14;12.30;99.90
15231;DHT22;32569;51.762;8.564;2022-09-17T14:23:45;12.00;99.90
15231;DHT22;32569;51.762;8.564;2022-09-17T14:26:17;11.80;99.90
15231;DHT22;32569;51.762;8.564;2022-09-17T14:28:49;11.80;99.90
15231;DHT22;32569;51.762;8.564;2022-09-17T14:31:23;12.00;99.90
15231;DHT22;32569;51.762;8.564;2022-09-17T14:33:54;11.90;99.90
15231;DHT22;32569;51.762;8.564;2022-09-17T14:36:21;11.90;99.90
15231;DHT22;32569;51.762;8.564;2022-09-17T14:38:51;11.80;99.90
15231;DHT22;32569;51.762;8.564;2022-09-17T14:41:20;11.70;99.90
15231;DHT22;32569;51.762;8.564;2022-09-17T14:43:51;11.70;99.90
15231;DHT22;32569;51.762;8.564;2022-09-17T14:46:20;11.70;99.90
15231;DHT22;32569;51.762;8.564;2022-09-17T14:48:48;11.70;99.90
15231;DHT22;32569;51.762;8.564;2022-09-17T14:51:27;11.80;99.90
15231;DHT22;32569;51.762;8.564;2022-09-17T14:54:08;12.00;99.90
15231;DHT22;32569;51.762;8.564;2022-09-17T14:56:52;12.30;99.90
15231;DHT22;32569;51.762;8.564;2022-09-17T14:59:22;12.60;99.90
15231;DHT22;32569;51.762;8.564;2022-09-17T15:01:50;12.70;99.90
15231;DHT22;32569;51.762;8.564;2022-09-17T15:04:20;12.70;99.90
15231;DHT22;32569;51.762;8.564;2022-09-17T15:06:49;12.90;99.70
15231;DHT22;32569;51.762;8.564;2022-09-17T15:09:17;12.90;99.90
15231;DHT22;32569;51.762;8.564;2022-09-17T15:11:46;12.90;99.90
15231;DHT22;32569;51.762;8.564;2022-09-17T15:14:16;13.00;99.90
15231;DHT22;32569;51.762;8.564;2022-09-17T15:16:48;13.00;99.50
15231;DHT22;32569;51.762;8.564;2022-09-17T15:19:21;13.10;99.80
15231;DHT22;32569;51.762;8.564;2022-09-17T15:21:51;13.20;99.30
15231;DHT22;32569;51.762;8.564;2022-09-17T15:24:29;13.30;99.20
15231;DHT22;32569;51.762;8.564;2022-09-17T15:27:03;13.20;99.50
15231;DHT22;32569;51.762;8.564;2022-09-17T15:29:33;13.40;99.30
15231;DHT22;32569;51.762;8.564;2022-09-17T15:32:03;13.40;99.30
15231;DHT22;32569;51.762;8.564;2022-09-17T15:34:29;13.40;98.80
15231;DHT22;32569;51.762;8.564;2022-09-17T15:37:04;13.40;98.80
15231;DHT22;32569;51.762;8.564;2022-09-17T15:39:38;13.50;98.90
15231;DHT22;32569;51.762;8.564;2022-09-17T15:42:16;13.50;98.70
15231;DHT22;32569;51.762;8.564;2022-09-17T15:44:45;13.50;98.90
15231;DHT22;32569;51.762;8.564;2022-09-17T15:50:18;13.60;98.90
15231;DHT22;32569;51.762;8.564;2022-09-17T15:52:48;13.70;99.40
15231;DHT22;32569;51.762;8.564;2022-09-17T15:55:32;13.80;99.30
15231;DHT22;32569;51.762;8.564;2022-09-17T15:58:01;13.70;99.40
15231;DHT22;32569;51.762;8.564;2022-09-17T16:00:28;13.60;99.90
15231;DHT22;32569;51.762;8.564;2022-09-17T16:02:56;13.50;99.90
15231;DHT22;32569;51.762;8.564;2022-09-17T16:05:47;13.40;99.90
15231;DHT22;32569;51.762;8.564;2022-09-17T16:08:22;13.30;99.90
15231;DHT22;32569;51.762;8.564;2022-09-17T16:10:50;13.00;99.90
15231;DHT22;32569;51.762;8.564;2022-09-17T16:13:17;12.80;99.90
15231;DHT22;32569;51.762;8.564;2022-09-17T16:15:43;12.50;99.90
15231;DHT22;32569;51.762;8.564;2022-09-17T16:18:14;12.00;99.90
15231;DHT22;32569;51.762;8.564;2022-09-17T16:20:42;11.30;99.90
15231;DHT22;32569;51.762;8.564;2022-09-17T16:23:09;10.70;99.90
15231;DHT22;32569;51.762;8.564;2022-09-17T16:25:37;10.50;99.90
15231;DHT22;32569;51.762;8.564;2022-09-17T16:28:11;10.40;99.90
15231;DHT22;32569;51.762;8.564;2022-09-17T16:30:40;10.20;99.90
15231;DHT22;32569;51.762;8.564;2022-09-17T16:33:11;10.20;99.90
15231;DHT22;32569;51.762;8.564;2022-09-17T16:35:37;10.20;99.90
15231;DHT22;32569;51.762;8.564;2022-09-17T16:38:05;10.30;99.90